Time;durP1;ratioP1;P1;durP2;ratioP2;P2;SDS_P1;SDS_P2;PMS_P1;PMS_P2;Temp;Humidity;BMP_temperature;BMP_pressure;BME280_temperature;BME280_humidity;BME280_pressure;Samples;Min_cycle;Max_cycle;Signal;HPM_P1;HPM_P2
2023/10/06 00:01:34;;;;;;;12.25;6.60;;;;;;;;;;5093370;28;20048;-50
2023/10/06 00:04:06;;;;;;;11.07;6.70;;;;;;;;;;5107177;28;20048;-51
2023/10/06 00:06:37;;;;;;;12.10;6.63;;;;;;;;;;5104545;28;20048;-50
2023/10/06 00:09:06;;;;;;;;;;;;;;;;;;5094151;28;20067;-50
2023/10/06 00:11:33;;;;;;;13.32;6.47;;;;;;;;;;5110163;28;19926;-50
2023/10/06 00:14:07;;;;;;;15.05;7.93;;;;;;;;;;5113749;28;20059;-49
2023/10/06 00:16:39;;;;;;;13.20;6.78;;;;;;;;;;5113493;28;20510;-48
2023/10/06 00:19:21;;;;;;;13.48;6.35;;;;;;;;;;5113257;28;20039;-50
2023/10/06 00:22:02;;;;;;;14.00;6.53;;;;;;;;;;5112975;28;20096;-51
2023/10/06 00:24:29;;;;;;;13.20;6.93;;;;;;;;;;5109364;28;20071;-50
2023/10/06 00:26:57;;;;;;;13.88;5.95;;;;;;;;;;5097584;28;20043;-50
2023/10/06 00:29:24;;;;;;;15.43;6.55;;;;;;;;;;5092934;28;20147;-49
2023/10/06 00:31:50;;;;;;;16.08;6.75;;;;;;;;;;5092491;28;20167;-49
2023/10/06 00:34:20;;;;;;;13.23;6.20;;;;;;;;;;5092571;28;20052;-50
2023/10/06 00:36:51;;;;;;;12.18;6.15;;;;;;;;;;5103529;28;20465;-51
2023/10/06 00:39:22;;;;;;;11.73;6.22;;;;;;;;;;5113261;28;20051;-55
2023/10/06 00:41:55;;;;;;;13.75;5.95;;;;;;;;;;5112619;28;20075;-50
2023/10/06 00:44:24;;;;;;;12.20;6.05;;;;;;;;;;5112941;28;20131;-50
2023/10/06 00:46:51;;;;;;;13.23;6.43;;;;;;;;;;5112678;28;20052;-50
2023/10/06 00:49:23;;;;;;;13.60;7.40;;;;;;;;;;5112881;28;20048;-52
2023/10/06 00:51:49;;;;;;;14.60;6.70;;;;;;;;;;5112515;28;20460;-54
2023/10/06 00:54:17;;;;;;;14.57;6.80;;;;;;;;;;5112658;28;20053;-50
2023/10/06 00:56:46;;;;;;;15.77;7.95;;;;;;;;;;5105834;28;20084;-52
2023/10/06 00:59:13;;;;;;;11.77;6.38;;;;;;;;;;5092179;28;20071;-50
2023/10/06 01:01:40;;;;;;;12.98;7.03;;;;;;;;;;5091774;28;20044;-52
2023/10/06 01:04:08;;;;;;;13.32;7.22;;;;;;;;;;5092123;28;20076;-51
2023/10/06 01:06:38;;;;;;;13.60;7.28;;;;;;;;;;5091886;28;20044;-51
2023/10/06 01:09:13;;;;;;;13.27;6.97;;;;;;;;;;5092176;28;20081;-51
2023/10/06 01:11:41;;;;;;;13.48;6.93;;;;;;;;;;5091760;28;20517;-49
2023/10/06 01:14:08;;;;;;;12.82;6.63;;;;;;;;;;5091901;28;20052;-53
2023/10/06 01:16:35;;;;;;;14.70;7.35;;;;;;;;;;5100653;28;20043;-49
2023/10/06 01:19:14;;;;;;;13.57;7.43;;;;;;;;;;5105293;28;20051;-49
2023/10/06 01:21:46;;;;;;;16.80;8.02;;;;;;;;;;5115168;27;20438;-51
2023/10/06 01:24:15;;;;;;;13.55;7.13;;;;;;;;;;5104740;28;20044;-52
2023/10/06 01:26:42;;;;;;;12.10;6.63;;;;;;;;;;5104772;28;20048;-47
2023/10/06 01:29:11;;;;;;;13.40;7.13;;;;;;;;;;5098467;28;20054;-52
2023/10/06 01:31:39;;;;;;;11.07;6.28;;;;;;;;;;5091642;28;20061;-50
2023/10/06 01:34:08;;;;;;;15.77;8.77;;;;;;;;;;5098410;27;20051;-51
2023/10/06 01:36:35;;;;;;;16.77;8.85;;;;;;;;;;5115176;27;20486;-52
2023/10/06 01:39:04;;;;;;;12.43;7.50;;;;;;;;;;5104896;28;20415;-50
2023/10/06 01:41:34;;;;;;;15.15;6.63;;;;;;;;;;5106941;28;20047;-49
2023/10/06 01:44:01;;;;;;;12.37;7.47;;;;;;;;;;5114918;27;20162;-53
2023/10/06 01:46:28;;;;;;;18.15;8.38;;;;;;;;;;5111184;28;20185;-50
2023/10/06 01:48:56;;;;;;;13.43;7.70;;;;;;;;;;5106794;28;20047;-51
2023/10/06 01:51:23;;;;;;;15.70;7.10;;;;;;;;;;5107404;28;20048;-50
2023/10/06 01:53:49;;;;;;;16.73;9.07;;;;;;;;;;5107916;28;20122;-48
2023/10/06 01:56:22;;;;;;;15.48;8.55;;;;;;;;;;5112430;28;20051;-50
2023/10/06 01:58:51;;;;;;;16.23;8.50;;;;;;;;;;5100909;28;20052;-52
2023/10/06 02:01:19;;;;;;;15.35;7.80;;;;;;;;;;5091259;28;20048;-53
2023/10/06 02:03:46;;;;;;;14.38;7.10;;;;;;;;;;5091138;28;20040;-52
2023/10/06 02:06:16;;;;;;;15.73;7.65;;;;;;;;;;5091330;28;20422;-50
2023/10/06 02:08:44;;;;;;;14.15;6.38;;;;;;;;;;5106281;28;20048;-51
2023/10/06 02:11:12;;;;;;;16.17;8.27;;;;;;;;;;5108337;28;20071;-53
2023/10/06 02:13:39;;;;;;;13.75;8.10;;;;;;;;;;5095295;28;20052;-49
2023/10/06 02:16:07;;;;;;;15.70;7.18;;;;;;;;;;5095402;28;20476;-52
2023/10/06 02:18:40;;;;;;;14.88;7.60;;;;;;;;;;5095229;28;20074;-50
2023/10/06 02:21:11;;;;;;;14.13;6.70;;;;;;;;;;5105202;28;20099;-51
2023/10/06 02:23:40;;;;;;;16.83;7.70;;;;;;;;;;5110911;27;20044;-51
2023/10/06 02:26:09;;;;;;;12.30;7.32;;;;;;;;;;5111669;28;20047;-49
2023/10/06 02:28:40;;;;;;;17.38;7.28;;;;;;;;;;5107898;28;20036;-53
2023/10/06 02:31:08;;;;;;;17.23;8.23;;;;;;;;;;5107780;28;20078;-52
2023/10/06 02:33:39;;;;;;;15.27;6.88;;;;;;;;;;5095039;28;20048;-50
2023/10/06 02:36:15;;;;;;;15.88;6.95;;;;;;;;;;5095894;28;20075;-52
2023/10/06 02:38:46;;;;;;;12.85;7.50;;;;;;;;;;5111071;28;20123;-51
2023/10/06 02:41:18;;;;;;;12.70;6.65;;;;;;;;;;5100246;28;20054;-50
2023/10/06 02:43:46;;;;;;;15.18;7.00;;;;;;;;;;5094495;28;20075;-51
2023/10/06 02:46:15;;;;;;;14.00;7.07;;;;;;;;;;5096641;28;20604;-51
2023/10/06 02:48:48;;;;;;;14.38;6.75;;;;;;;;;;5110912;28;20113;-49
2023/10/06 02:51:32;;;;;;;11.65;6.45;;;;;;;;;;5100219;28;20419;-49
2023/10/06 02:54:13;;;;;;;14.10;7.15;;;;;;;;;;5106608;28;20044;-49
2023/10/06 02:56:40;;;;;;;14.98;6.47;;;;;;;;;;5114847;28;20070;-52
2023/10/06 02:59:20;;;;;;;12.00;6.45;;;;;;;;;;5114965;28;20138;-50
2023/10/06 03:01:52;;;;;;;13.25;6.35;;;;;;;;;;5114518;28;20048;-51
2023/10/06 03:04:21;;;;;;;13.68;6.40;;;;;;;;;;5114700;28;20044;-49
2023/10/06 03:06:53;;;;;;;12.98;6.88;;;;;;;;;;5114873;28;20043;-49
2023/10/06 03:09:20;;;;;;;12.70;6.30;;;;;;;;;;5110402;28;20039;-53
2023/10/06 03:11:49;;;;;;;11.55;6.68;;;;;;;;;;5095267;28;20101;-50
2023/10/06 03:14:18;;;;;;;12.10;5.72;;;;;;;;;;5094130;28;20044;-49
2023/10/06 03:16:50;;;;;;;14.18;6.40;;;;;;;;;;5094006;28;20052;-49
2023/10/06 03:19:24;;;;;;;14.63;7.10;;;;;;;;;;5093940;28;20484;-51
2023/10/06 03:21:55;;;;;;;14.90;8.32;;;;;;;;;;5093547;28;20575;-53
2023/10/06 03:24:30;;;;;;;14.43;6.70;;;;;;;;;;5094079;28;20055;-52
2023/10/06 03:26:58;;;;;;;15.13;6.85;;;;;;;;;;5106132;28;20048;-50
2023/10/06 03:29:34;;;;;;;12.65;6.55;;;;;;;;;;5114190;28;20046;-51
2023/10/06 03:32:01;;;;;;;12.57;6.53;;;;;;;;;;5114008;28;20051;-52
2023/10/06 03:34:31;;;;;;;15.88;7.22;;;;;;;;;;5114120;28;20070;-49
2023/10/06 03:36:58;;;;;;;13.53;6.93;;;;;;;;;;5117990;27;20555;-50
2023/10/06 03:39:28;;;;;;;12.65;6.75;;;;;;;;;;5109895;28;20754;-50
2023/10/06 03:41:59;;;;;;;12.50;7.25;;;;;;;;;;5111028;27;20043;-50
2023/10/06 03:44:29;;;;;;;13.05;7.35;;;;;;;;;;5105962;28;20112;-50
2023/10/06 03:46:57;;;;;;;12.63;6.32;;;;;;;;;;5113958;28;20051;-53
2023/10/06 03:49:26;;;;;;;15.52;8.43;;;;;;;;;;5113842;28;20449;-51
2023/10/06 03:51:56;;;;;;;12.48;7.13;;;;;;;;;;5106608;28;20056;-51
2023/10/06 03:54:23;;;;;;;11.45;6.25;;;;;;;;;;5093385;28;20044;-50
2023/10/06 03:56:50;;;;;;;13.38;5.72;;;;;;;;;;5096494;28;20048;-50
2023/10/06 03:59:17;;;;;;;11.20;6.38;;;;;;;;;;5109574;28;20499;-50
2023/10/06 04:01:45;;;;;;;12.93;6.53;;;;;;;;;;5096498;28;20059;-50
2023/10/06 04:04:13;;;;;;;13.98;6.32;;;;;;;;;;5113857;28;20051;-51
2023/10/06 04:06:40;;;;;;;12.60;6.57;;;;;;;;;;5112582;28;20126;-53
2023/10/06 04:09:10;;;;;;;13.18;6.95;;;;;;;;;;5100685;27;20058;-50
2023/10/06 04:11:37;;;;;;;14.25;6.45;;;;;;;;;;5119445;27;20047;-51
2023/10/06 04:14:05;;;;;;;13.25;6.53;;;;;;;;;;5106138;28;20044;-51
2023/10/06 04:16:41;;;;;;;12.82;6.50;;;;;;;;;;5106681;28;20491;-51
2023/10/06 04:19:08;;;;;;;12.32;6.60;;;;;;;;;;5109145;28;20054;-51
2023/10/06 04:21:34;;;;;;;10.90;6.43;;;;;;;;;;5105643;27;20103;-51
2023/10/06 04:24:01;;;;;;;15.27;7.00;;;;;;;;;;5110821;28;20054;-50
2023/10/06 04:26:30;;;;;;;13.68;7.20;;;;;;;;;;5104950;28;20478;-50
2023/10/06 04:28:59;;;;;;;12.82;6.68;;;;;;;;;;5100897;28;20044;-50
2023/10/06 04:31:25;;;;;;;11.00;6.35;;;;;;;;;;5092502;28;20055;-50
2023/10/06 04:33:53;;;;;;;11.70;6.35;;;;;;;;;;5093010;28;20063;-50
2023/10/06 04:36:23;;;;;;;13.23;7.28;;;;;;;;;;5108221;27;20035;-54
2023/10/06 04:38:50;;;;;;;14.20;6.70;;;;;;;;;;5119454;27;20074;-51
2023/10/06 04:41:20;;;;;;;16.77;6.50;;;;;;;;;;5110159;28;20047;-49
2023/10/06 04:43:48;;;;;;;13.93;6.82;;;;;;;;;;5112671;27;20039;-51
2023/10/06 04:46:15;;;;;;;17.15;6.95;;;;;;;;;;5110681;27;20068;-49
2023/10/06 04:48:41;;;;;;;12.30;5.90;;;;;;;;;;5103119;28;20048;-50
2023/10/06 04:51:10;;;;;;;14.50;5.95;;;;;;;;;;5092964;28;20127;-50
2023/10/06 04:53:37;;;;;;;15.63;6.05;;;;;;;;;;5111962;28;20068;-50
2023/10/06 04:56:05;;;;;;;16.40;6.68;;;;;;;;;;5105013;28;20048;-51
2023/10/06 04:58:32;;;;;;;19.30;6.85;;;;;;;;;;5109391;28;20043;-49
2023/10/06 05:01:00;;;;;;;11.30;6.07;;;;;;;;;;5112477;28;20396;-51
2023/10/06 05:03:27;;;;;;;14.48;6.55;;;;;;;;;;5112695;28;20047;-52
2023/10/06 05:05:55;;;;;;;13.18;6.38;;;;;;;;;;5108128;28;20612;-50
2023/10/06 05:08:24;;;;;;;15.85;7.38;;;;;;;;;;5097428;28;20110;-53
2023/10/06 05:10:51;;;;;;;15.52;7.28;;;;;;;;;;5092636;28;20044;-51
2023/10/06 05:13:19;;;;;;;15.38;7.32;;;;;;;;;;5092289;28;20101;-51
2023/10/06 05:15:45;;;;;;;17.25;8.52;;;;;;;;;;5091984;28;20044;-51
2023/10/06 05:18:15;;;;;;;13.82;7.47;;;;;;;;;;5091975;28;20050;-50
2023/10/06 05:20:42;;;;;;;18.47;7.83;;;;;;;;;;5092188;28;20473;-51
2023/10/06 05:23:11;;;;;;;12.63;6.32;;;;;;;;;;5102976;27;20047;-53
2023/10/06 05:25:38;;;;;;;11.15;6.47;;;;;;;;;;5111882;27;20101;-54
2023/10/06 05:28:07;;;;;;;15.65;6.88;;;;;;;;;;5109300;27;20055;-50
2023/10/06 05:30:36;;;;;;;15.35;7.68;;;;;;;;;;5107470;28;20044;-50
2023/10/06 05:33:04;;;;;;;16.10;7.22;;;;;;;;;;5099249;28;20070;-50
2023/10/06 05:35:36;;;;;;;18.00;7.45;;;;;;;;;;5107202;27;20133;-50
2023/10/06 05:38:03;;;;;;;15.35;8.02;;;;;;;;;;5116070;27;20070;-50
2023/10/06 05:40:30;;;;;;;18.25;7.15;;;;;;;;;;5103986;28;20039;-53
2023/10/06 05:42:57;;;;;;;17.23;7.85;;;;;;;;;;5109212;28;20044;-50
2023/10/06 05:45:24;;;;;;;16.95;7.43;;;;;;;;;;5115214;27;20062;-50
2023/10/06 05:47:54;;;;;;;16.58;7.93;;;;;;;;;;5105217;28;20067;-50
2023/10/06 05:50:27;;;;;;;;;;;;;;;;;;5106852;28;20543;-51
2023/10/06 05:53:02;;;;;;;21.17;8.57;;;;;;;;;;5115268;28;19933;-51
2023/10/06 05:55:30;;;;;;;13.45;6.80;;;;;;;;;;5103842;28;20039;-54
2023/10/06 05:57:58;;;;;;;16.20;7.10;;;;;;;;;;5107464;28;20055;-50
2023/10/06 06:00:27;;;;;;;15.57;7.07;;;;;;;;;;5095958;28;20048;-50
2023/10/06 06:02:57;;;;;;;18.92;7.85;;;;;;;;;;5110027;28;20048;-51
2023/10/06 06:05:24;;;;;;;16.58;7.15;;;;;;;;;;5106290;28;20080;-50
2023/10/06 06:07:52;;;;;;;16.42;7.60;;;;;;;;;;5110682;28;20040;-50
2023/10/06 06:10:21;;;;;;;15.57;7.43;;;;;;;;;;5105759;28;20050;-50
2023/10/06 06:12:48;;;;;;;16.27;7.90;;;;;;;;;;5101226;28;20051;-53
2023/10/06 06:15:16;;;;;;;16.33;8.20;;;;;;;;;;5091620;28;20055;-49
2023/10/06 06:17:44;;;;;;;15.70;7.43;;;;;;;;;;5091453;28;20105;-50
2023/10/06 06:20:14;;;;;;;19.98;7.82;;;;;;;;;;5091415;28;20054;-50
2023/10/06 06:22:43;;;;;;;;;;;;;;;;;;5091756;28;20048;-51
2023/10/06 06:25:10;;;;;;;16.20;7.95;;;;;;;;;;5091493;28;19920;-49
2023/10/06 06:27:38;;;;;;;14.68;7.03;;;;;;;;;;5091586;28;20539;-50
2023/10/06 06:30:06;;;;;;;13.13;7.07;;;;;;;;;;5091283;28;20047;-49
2023/10/06 06:32:32;;;;;;;17.08;8.02;;;;;;;;;;5091116;28;20083;-50
2023/10/06 06:34:59;;;;;;;16.95;7.53;;;;;;;;;;5091391;28;20135;-52
2023/10/06 06:37:27;;;;;;;21.27;8.23;;;;;;;;;;5098715;28;20094;-51
2023/10/06 06:39:55;;;;;;;14.40;8.20;;;;;;;;;;5111654;28;20131;-49
2023/10/06 06:42:21;;;;;;;16.17;7.38;;;;;;;;;;5111386;28;20043;-52
2023/10/06 06:44:50;;;;;;;17.85;8.52;;;;;;;;;;5111409;28;20039;-50
2023/10/06 06:47:18;;;;;;;15.23;8.63;;;;;;;;;;5112359;28;20400;-52
2023/10/06 06:49:48;;;;;;;17.30;7.90;;;;;;;;;;5106294;28;20092;-49
2023/10/06 06:52:15;;;;;;;12.88;7.15;;;;;;;;;;5115523;28;20051;-53
2023/10/06 06:54:46;;;;;;;17.08;7.75;;;;;;;;;;5105997;28;20040;-52
2023/10/06 06:57:15;;;;;;;14.38;7.65;;;;;;;;;;5102006;27;20039;-50
2023/10/06 06:59:44;;;;;;;15.63;7.68;;;;;;;;;;5115706;27;20047;-52
2023/10/06 07:02:12;;;;;;;16.92;7.45;;;;;;;;;;5116010;27;20044;-50
2023/10/06 07:04:39;;;;;;;13.65;6.90;;;;;;;;;;5114740;28;20126;-53
2023/10/06 07:07:05;;;;;;;14.68;6.88;;;;;;;;;;5110147;28;20075;-49
2023/10/06 07:09:32;;;;;;;18.15;7.75;;;;;;;;;;5114357;27;20059;-53
2023/10/06 07:11:59;;;;;;;13.25;6.88;;;;;;;;;;5114109;27;20131;-48
2023/10/06 07:14:27;;;;;;;14.55;7.03;;;;;;;;;;5114110;27;20058;-50
2023/10/06 07:16:56;;;;;;;12.63;7.32;;;;;;;;;;5107537;27;20043;-50
2023/10/06 07:19:24;;;;;;;15.45;7.72;;;;;;;;;;5098709;28;20059;-51
2023/10/06 07:21:53;;;;;;;14.90;7.32;;;;;;;;;;5093324;28;20052;-49
2023/10/06 07:24:19;;;;;;;17.25;7.00;;;;;;;;;;5094152;28;20048;-52
2023/10/06 07:26:46;;;;;;;13.65;6.57;;;;;;;;;;5094066;28;20071;-50
2023/10/06 07:29:14;;;;;;;15.65;7.00;;;;;;;;;;5093970;28;20048;-53
2023/10/06 07:31:41;;;;;;;14.05;6.53;;;;;;;;;;5093768;28;20055;-54
2023/10/06 07:34:07;;;;;;;12.70;6.88;;;;;;;;;;5093808;28;20051;-50
2023/10/06 07:36:37;;;;;;;15.52;7.32;;;;;;;;;;5108353;27;20480;-51
2023/10/06 07:39:08;;;;;;;15.50;7.43;;;;;;;;;;5120006;27;20438;-49
2023/10/06 07:41:36;;;;;;;13.70;7.28;;;;;;;;;;5110336;27;20047;-51
2023/10/06 07:44:05;;;;;;;11.02;6.68;;;;;;;;;;5109431;28;20100;-49
2023/10/06 07:46:31;;;;;;;13.40;6.72;;;;;;;;;;5105808;27;20051;-48
2023/10/06 07:48:58;;;;;;;17.75;7.82;;;;;;;;;;5109565;27;20477;-54
2023/10/06 07:51:26;;;;;;;13.05;7.05;;;;;;;;;;5114234;27;20130;-52
2023/10/06 07:54:03;;;;;;;15.63;7.22;;;;;;;;;;5111375;27;20526;-54
2023/10/06 07:56:30;;;;;;;12.82;7.38;;;;;;;;;;5110444;27;20047;-51
2023/10/06 07:58:58;;;;;;;12.40;6.90;;;;;;;;;;5111917;27;20051;-53
2023/10/06 08:01:25;;;;;;;16.08;7.43;;;;;;;;;;5113009;27;20048;-53
2023/10/06 08:03:53;;;;;;;14.60;7.97;;;;;;;;;;5115657;27;20043;-51
2023/10/06 08:06:20;;;;;;;16.42;8.30;;;;;;;;;;5114510;27;20077;-52
2023/10/06 08:08:48;;;;;;;18.15;9.68;;;;;;;;;;5112289;27;20517;-51
2023/10/06 08:11:16;;;;;;;16.92;9.82;;;;;;;;;;5114625;27;20477;-51
2023/10/06 08:13:42;;;;;;;19.50;8.65;;;;;;;;;;5111580;27;20050;-53
2023/10/06 08:16:11;;;;;;;19.23;9.25;;;;;;;;;;5106353;27;20040;-60
2023/10/06 08:18:39;;;;;;;17.30;8.68;;;;;;;;;;5112221;27;20117;-50
2023/10/06 08:21:06;;;;;;;17.48;8.80;;;;;;;;;;5112056;27;20478;-52
2023/10/06 08:23:34;;;;;;;16.83;9.98;;;;;;;;;;5109792;28;20047;-50
2023/10/06 08:26:07;;;;;;;16.65;8.10;;;;;;;;;;5107716;27;20056;-51
2023/10/06 08:28:35;;;;;;;14.05;8.30;;;;;;;;;;5106203;27;20038;-52
2023/10/06 08:31:02;;;;;;;14.15;8.30;;;;;;;;;;5107863;27;20134;-51
2023/10/06 08:33:29;;;;;;;16.08;9.57;;;;;;;;;;5115974;27;20050;-49
2023/10/06 08:35:57;;;;;;;15.23;8.73;;;;;;;;;;5111661;27;20048;-53
2023/10/06 08:38:24;;;;;;;14.35;8.25;;;;;;;;;;5105852;27;20130;-51
2023/10/06 08:40:56;;;;;;;15.40;7.25;;;;;;;;;;5104305;27;20047;-50
2023/10/06 08:43:27;;;;;;;16.63;8.48;;;;;;;;;;5107931;27;20585;-52
2023/10/06 08:45:59;;;;;;;15.80;8.30;;;;;;;;;;5109790;27;20052;-54
2023/10/06 08:48:31;;;;;;;18.00;8.63;;;;;;;;;;5102917;27;20128;-52
2023/10/06 08:51:00;;;;;;;15.32;8.15;;;;;;;;;;5104943;27;20094;-50
2023/10/06 08:53:27;;;;;;;12.18;7.43;;;;;;;;;;5114063;27;20136;-48
2023/10/06 08:55:54;;;;;;;15.30;7.35;;;;;;;;;;5107332;27;20043;-53
2023/10/06 08:58:26;;;;;;;14.35;8.25;;;;;;;;;;5100578;28;20054;-50
2023/10/06 09:00:55;;;;;;;13.68;7.72;;;;;;;;;;5106560;27;20044;-48
2023/10/06 09:03:22;;;;;;;12.23;6.80;;;;;;;;;;5102859;27;20054;-50
2023/10/06 09:05:50;;;;;;;11.90;6.88;;;;;;;;;;5106539;28;20097;-50
2023/10/06 09:08:17;;;;;;;14.95;7.28;;;;;;;;;;5110340;27;20054;-53
2023/10/06 09:10:48;;;;;;;17.98;8.43;;;;;;;;;;5103060;27;20452;-51
2023/10/06 09:13:19;;;;;;;13.90;7.82;;;;;;;;;;5106517;28;20048;-54
2023/10/06 09:15:59;;;;;;;12.02;7.78;;;;;;;;;;5103369;28;20043;-51
2023/10/06 09:18:28;;;;;;;12.93;8.20;;;;;;;;;;5109619;28;20520;-51
2023/10/06 09:20:56;;;;;;;12.43;7.82;;;;;;;;;;5103116;27;20067;-49
2023/10/06 09:23:34;;;;;;;16.83;8.18;;;;;;;;;;5102434;28;20051;-49
2023/10/06 09:26:01;;;;;;;16.40;8.65;;;;;;;;;;5106238;28;20205;-50
2023/10/06 09:28:28;;;;;;;15.45;7.18;;;;;;;;;;5108377;27;20055;-51
2023/10/06 09:31:00;;;;;;;12.20;6.88;;;;;;;;;;5107729;27;20050;-52
2023/10/06 09:33:41;;;;;;;11.75;7.18;;;;;;;;;;5109848;27;20047;-61
2023/10/06 09:36:11;;;;;;;16.02;7.70;;;;;;;;;;5110722;28;20098;-52
2023/10/06 09:38:40;;;;;;;14.45;8.07;;;;;;;;;;5109150;27;20077;-50
2023/10/06 09:41:09;;;;;;;13.70;8.00;;;;;;;;;;5111169;27;20143;-50
2023/10/06 09:43:38;;;;;;;13.80;7.78;;;;;;;;;;5106233;27;20059;-52
2023/10/06 09:46:07;;;;;;;15.52;7.72;;;;;;;;;;5107925;27;20438;-51
2023/10/06 09:48:39;;;;;;;12.55;7.00;;;;;;;;;;5104569;28;20039;-52
2023/10/06 09:51:07;;;;;;;13.20;7.45;;;;;;;;;;5108039;27;20048;-53
2023/10/06 09:53:38;;;;;;;14.68;8.68;;;;;;;;;;5103534;28;20616;-50
2023/10/06 09:56:06;;;;;;;;;;;;;;;;;;5109399;28;20043;-50
2023/10/06 09:58:33;;;;;;;15.32;7.82;;;;;;;;;;5108090;28;19920;-50
2023/10/06 10:01:00;;;;;;;14.05;7.72;;;;;;;;;;5105798;28;20457;-53
2023/10/06 10:03:28;;;;;;;13.15;7.95;;;;;;;;;;5101122;28;20075;-53
2023/10/06 10:06:00;;;;;;;13.32;7.80;;;;;;;;;;5110427;28;20487;-53
2023/10/06 10:08:30;;;;;;;12.75;7.35;;;;;;;;;;5106713;28;20044;-55
2023/10/06 10:11:01;;;;;;;12.65;7.57;;;;;;;;;;5107131;28;20051;-55
2023/10/06 10:13:50;;;;;;;12.88;7.07;;;;;;;;;;5108829;28;20055;-51
2023/10/06 10:16:39;;;;;;;12.18;6.68;;;;;;;;;;5109570;28;20529;-52
2023/10/06 10:19:11;;;;;;;12.35;6.35;;;;;;;;;;5107854;28;20044;-52
2023/10/06 10:21:41;;;;;;;14.70;7.18;;;;;;;;;;5106401;28;20047;-51
2023/10/06 10:24:12;;;;;;;9.52;7.40;;;;;;;;;;5107087;28;20075;-55
2023/10/06 10:26:39;;;;;;;14.93;7.57;;;;;;;;;;5101504;28;20054;-53
2023/10/06 10:29:28;;;;;;;13.23;6.45;;;;;;;;;;5106521;28;20075;-54
2023/10/06 10:32:01;;;;;;;9.05;6.15;;;;;;;;;;5108949;27;20062;-51
2023/10/06 10:34:33;;;;;;;11.40;6.18;;;;;;;;;;5110565;28;20050;-53
2023/10/06 10:37:20;;;;;;;10.18;6.03;;;;;;;;;;5108781;28;20546;-52
2023/10/06 10:39:50;;;;;;;10.23;5.15;;;;;;;;;;5106850;28;20043;-51
2023/10/06 10:42:21;;;;;;;13.13;5.65;;;;;;;;;;5108972;28;20139;-55
2023/10/06 10:44:48;;;;;;;10.00;5.72;;;;;;;;;;5107374;27;20696;-54
2023/10/06 10:47:16;;;;;;;10.07;5.70;;;;;;;;;;5109370;27;20051;-51
2023/10/06 10:49:44;;;;;;;10.07;5.70;;;;;;;;;;5109215;27;20050;-50
2023/10/06 10:52:11;;;;;;;9.38;5.75;;;;;;;;;;5109151;28;20044;-52
2023/10/06 10:54:42;;;;;;;12.63;6.53;;;;;;;;;;5111169;27;20046;-49
2023/10/06 10:57:11;;;;;;;10.10;5.68;;;;;;;;;;5112114;27;20047;-53
2023/10/06 11:00:13;;;;;;;10.80;6.40;;;;;;;;;;5108385;28;20044;-50
2023/10/06 11:02:41;;;;;;;11.85;5.82;;;;;;;;;;5109537;27;20050;-52
2023/10/06 11:05:09;;;;;;;10.30;5.28;;;;;;;;;;5112931;27;20067;-50
2023/10/06 11:07:36;;;;;;;9.63;5.68;;;;;;;;;;5109755;28;20048;-49
2023/10/06 11:10:05;;;;;;;12.23;6.22;;;;;;;;;;5112931;27;20048;-52
2023/10/06 11:12:35;;;;;;;10.18;5.25;;;;;;;;;;5111134;27;20769;-54
2023/10/06 11:15:13;;;;;;;11.27;5.38;;;;;;;;;;5111446;27;20487;-50
2023/10/06 11:17:41;;;;;;;9.68;5.38;;;;;;;;;;5112715;27;20101;-50
2023/10/06 11:20:13;;;;;;;9.80;5.25;;;;;;;;;;5106985;27;20105;-64
2023/10/06 11:22:41;;;;;;;9.02;4.70;;;;;;;;;;5111888;27;20050;-62
2023/10/06 11:25:10;;;;;;;9.85;5.22;;;;;;;;;;5114994;27;20052;-60
2023/10/06 11:27:39;;;;;;;8.85;4.18;;;;;;;;;;5113997;27;20055;-61
2023/10/06 11:30:11;;;;;;;8.00;4.25;;;;;;;;;;5111676;27;20529;-51
2023/10/06 11:32:38;;;;;;;10.38;5.07;;;;;;;;;;5108079;28;20043;-54
2023/10/06 11:35:06;;;;;;;13.73;6.05;;;;;;;;;;5111805;27;20052;-51
2023/10/06 11:37:33;;;;;;;8.98;4.53;;;;;;;;;;5113642;27;20096;-52
2023/10/06 11:40:01;;;;;;;8.32;4.45;;;;;;;;;;5112334;27;20058;-53
2023/10/06 11:42:35;;;;;;;8.23;5.15;;;;;;;;;;5107419;28;20434;-51
2023/10/06 11:45:06;;;;;;;10.85;5.03;;;;;;;;;;5110988;28;20100;-52
2023/10/06 11:47:40;;;;;;;9.63;4.43;;;;;;;;;;5110421;27;20046;-50
2023/10/06 11:50:08;;;;;;;8.13;4.53;;;;;;;;;;5110999;27;20043;-50
2023/10/06 11:52:35;;;;;;;9.88;4.53;;;;;;;;;;5110480;28;20495;-50
2023/10/06 11:55:08;;;;;;;9.23;4.60;;;;;;;;;;5110308;28;20039;-53
2023/10/06 11:57:47;;;;;;;8.25;3.92;;;;;;;;;;5110869;28;20407;-50
2023/10/06 12:00:17;;;;;;;10.98;5.05;;;;;;;;;;5106515;27;20142;-53
2023/10/06 12:02:49;;;;;;;8.18;5.03;;;;;;;;;;5110394;28;20067;-54
2023/10/06 12:05:17;;;;;;;8.52;4.57;;;;;;;;;;5110815;27;20108;-54
2023/10/06 12:07:44;;;;;;;7.57;4.38;;;;;;;;;;5112355;27;20475;-54
2023/10/06 12:10:11;;;;;;;8.02;4.60;;;;;;;;;;5112823;27;20040;-51
2023/10/06 12:12:40;;;;;;;8.05;4.43;;;;;;;;;;5107902;27;20074;-49
2023/10/06 12:15:08;;;;;;;9.20;4.40;;;;;;;;;;5109990;27;20054;-51
2023/10/06 12:17:38;;;;;;;9.57;4.40;;;;;;;;;;5106988;28;20054;-49
2023/10/06 12:20:07;;;;;;;9.45;4.30;;;;;;;;;;5107766;27;20058;-49
2023/10/06 12:22:34;;;;;;;10.27;4.70;;;;;;;;;;5111522;27;20971;-50
2023/10/06 12:25:01;;;;;;;7.40;4.50;;;;;;;;;;5110700;27;20050;-51
2023/10/06 12:27:28;;;;;;;9.25;4.38;;;;;;;;;;5110989;27;20052;-50
2023/10/06 12:29:55;;;;;;;7.70;4.13;;;;;;;;;;5111954;27;20060;-51
2023/10/06 12:32:23;;;;;;;10.52;4.30;;;;;;;;;;5109892;27;20075;-53
2023/10/06 12:34:50;;;;;;;8.57;4.57;;;;;;;;;;5111437;27;20047;-52
2023/10/06 12:37:17;;;;;;;8.43;3.50;;;;;;;;;;5109738;27;20050;-54
2023/10/06 12:39:45;;;;;;;8.50;4.45;;;;;;;;;;5110600;27;20047;-52
2023/10/06 12:42:12;;;;;;;7.03;3.28;;;;;;;;;;5110373;27;20487;-53
2023/10/06 12:44:42;;;;;;;10.65;4.63;;;;;;;;;;5105302;28;20093;-51
2023/10/06 12:47:10;;;;;;;7.22;3.92;;;;;;;;;;5107854;28;20052;-56
2023/10/06 12:49:42;;;;;;;8.13;3.58;;;;;;;;;;5109865;27;20065;-54
2023/10/06 12:52:09;;;;;;;6.65;3.63;;;;;;;;;;5101209;28;20071;-50
2023/10/06 12:54:36;;;;;;;9.13;3.88;;;;;;;;;;5108810;28;20043;-54
2023/10/06 12:57:03;;;;;;;7.30;3.78;;;;;;;;;;5105864;28;20048;-54
2023/10/06 12:59:29;;;;;;;11.60;3.85;;;;;;;;;;5108113;28;20494;-53
2023/10/06 13:01:57;;;;;;;9.65;4.25;;;;;;;;;;5103728;28;20131;-50
2023/10/06 13:04:23;;;;;;;8.20;3.58;;;;;;;;;;5107235;28;20047;-55
2023/10/06 13:06:51;;;;;;;7.13;3.53;;;;;;;;;;5105155;28;20469;-53
2023/10/06 13:09:20;;;;;;;8.13;3.63;;;;;;;;;;5107922;28;20051;-53
2023/10/06 13:11:47;;;;;;;7.80;3.88;;;;;;;;;;5109188;28;20035;-50
2023/10/06 13:14:15;;;;;;;7.57;4.60;;;;;;;;;;5110339;27;20062;-51
2023/10/06 13:16:42;;;;;;;8.27;3.88;;;;;;;;;;5108400;27;20052;-52
2023/10/06 13:19:09;;;;;;;8.35;3.60;;;;;;;;;;5107858;27;20051;-51
2023/10/06 13:21:35;;;;;;;6.78;3.22;;;;;;;;;;5111450;27;20399;-51
2023/10/06 13:24:05;;;;;;;7.13;3.83;;;;;;;;;;5103918;27;20058;-53
2023/10/06 13:26:32;;;;;;;7.18;3.72;;;;;;;;;;5105759;27;20108;-49
2023/10/06 13:28:59;;;;;;;9.50;4.35;;;;;;;;;;5107984;27;20044;-54
2023/10/06 13:31:25;;;;;;;8.15;4.10;;;;;;;;;;5107424;28;20105;-53
2023/10/06 13:33:54;;;;;;;7.18;3.60;;;;;;;;;;5108152;28;20419;-55
2023/10/06 13:36:20;;;;;;;6.57;3.35;;;;;;;;;;5110524;28;20043;-59
2023/10/06 13:38:47;;;;;;;8.57;3.75;;;;;;;;;;5103921;28;20142;-52
2023/10/06 13:41:15;;;;;;;6.40;3.40;;;;;;;;;;5107503;28;20052;-52
2023/10/06 13:43:42;;;;;;;8.65;3.95;;;;;;;;;;5108520;28;20047;-51
2023/10/06 13:46:10;;;;;;;8.60;3.70;;;;;;;;;;5107764;28;20043;-50
2023/10/06 13:48:37;;;;;;;7.90;3.35;;;;;;;;;;5105856;28;20047;-54
2023/10/06 13:51:08;;;;;;;8.10;4.35;;;;;;;;;;5100587;28;20153;-52
2023/10/06 13:53:35;;;;;;;7.25;3.47;;;;;;;;;;5108734;28;20479;-54
2023/10/06 13:56:02;;;;;;;7.13;3.85;;;;;;;;;;5099168;28;20099;-52
2023/10/06 13:58:30;;;;;;;5.63;3.47;;;;;;;;;;5106643;28;20075;-50
2023/10/06 14:00:59;;;;;;;7.15;3.40;;;;;;;;;;5105214;28;20043;-53
2023/10/06 14:03:25;;;;;;;8.75;3.97;;;;;;;;;;5106709;28;20048;-52
2023/10/06 14:05:53;;;;;;;9.05;3.70;;;;;;;;;;5111001;27;20233;-50
2023/10/06 14:08:20;;;;;;;7.25;3.63;;;;;;;;;;5110601;28;20101;-53
2023/10/06 14:10:48;;;;;;;7.05;3.63;;;;;;;;;;5112090;27;20082;-55
2023/10/06 14:13:21;;;;;;;7.20;3.85;;;;;;;;;;5111798;28;20044;-51
2023/10/06 14:15:54;;;;;;;8.07;3.70;;;;;;;;;;5107034;27;20461;-55
2023/10/06 14:18:24;;;;;;;7.95;3.70;;;;;;;;;;5115028;27;20047;-54
2023/10/06 14:20:52;;;;;;;;;;;;;;;;;;5108995;27;20609;-51
2023/10/06 14:23:23;;;;;;;7.93;3.25;;;;;;;;;;5115397;27;20009;-49
2023/10/06 14:25:52;;;;;;;8.50;3.65;;;;;;;;;;5114346;27;20050;-52
2023/10/06 14:28:22;;;;;;;7.15;3.67;;;;;;;;;;5116449;27;20121;-55
2023/10/06 14:30:51;;;;;;;;;;;;;;;;;;5112788;27;20052;-52
2023/10/06 14:33:22;;;;;;;6.95;3.67;;;;;;;;;;5114208;27;19962;-53
2023/10/06 14:36:09;;;;;;;7.75;3.80;;;;;;;;;;5112395;28;20086;-55
2023/10/06 14:46:58;;;;;;;9.68;4.10;;;;;;;;;;5074173;28;20528;-53
2023/10/06 14:49:26;;;;;;;7.75;4.10;;;;;;;;;;5111010;27;20039;-52
2023/10/06 14:51:55;;;;;;;8.80;4.53;;;;;;;;;;5114431;27;20419;-55
2023/10/06 14:54:25;;;;;;;8.30;4.10;;;;;;;;;;5111983;27;20051;-52
2023/10/06 14:56:53;;;;;;;8.40;4.30;;;;;;;;;;5108158;27;20079;-52